Time;durP1;ratioP1;P1;durP2;ratioP2;P2;SDS_P1;SDS_P2;PMS_P1;PMS_P2;Temp;Humidity;BMP_temperature;BMP_pressure;BME280_temperature;BME280_humidity;BME280_pressure;Samples;Min_cycle;Max_cycle;Signal;HPM_P1;HPM_P2
2021/06/17 00:01:25;;;;;;;;;;;;;;;15.91;63.09;97286.63;1684633;85;20135;-80
2021/06/17 00:03:51;;;;;;;;;;;;;;;15.87;62.95;97290.59;1634264;85;20140;-83
2021/06/17 00:06:17;;;;;;;;;;;;;;;15.83;62.69;97286.52;1642409;85;20514;-77
2021/06/17 00:08:44;;;;;;;;;;;;;;;15.78;62.67;97284.32;1656713;85;20467;-85
2021/06/17 00:11:10;;;;;;;;;;;;;;;15.76;62.48;97286.29;1657231;85;20154;-81
2021/06/17 00:13:37;;;;;;;;;;;;;;;15.73;61.65;97289.27;1648230;87;20144;-79
2021/06/17 00:16:05;;;;;;;;;;;;;;;15.72;64.67;97284.94;1630166;87;20520;-78
2021/06/17 00:18:32;;;;;;;;;;;;;;;15.72;63.23;97288.92;1669203;85;20135;-78
2021/06/17 00:20:59;;;;;;;;;;;;;;;15.70;62.31;97292.22;1684036;85;20123;-81
2021/06/17 00:23:25;;;;;;;;;;;;;;;15.66;62.99;97289.03;1636358;85;20438;-76
2021/06/17 00:25:51;;;;;;;;;;;;;;;15.64;63.37;97290.17;1670445;85;20444;-78
2021/06/17 00:28:18;;;;;;;;;;;;;;;15.59;63.78;97287.46;1655640;85;20126;-77
2021/06/17 00:30:44;;;;;;;;;;;;;;;15.57;63.69;97292.08;1656321;86;20158;-82
2021/06/17 00:33:10;;;;;;;;;;;;;;;15.54;63.00;97288.89;1656635;87;20166;-81
2021/06/17 00:35:36;;;;;;;;;;;;;;;15.51;65.11;97289.18;1656497;87;20122;-78
2021/06/17 00:38:03;;;;;;;;;;;;;;;15.47;63.53;97288.64;1637145;86;20184;-77
2021/06/17 00:40:29;;;;;;;;;;;;;;;15.42;64.69;97286.44;1630074;88;20165;-78
2021/06/17 00:42:56;;;;;;;;;;;;;;;15.40;62.32;97292.89;1629921;88;20176;-76
2021/06/17 00:45:25;;;;;;;;;;;;;;;15.37;64.44;97296.69;1630023;88;20181;-79
2021/06/17 00:47:51;;;;;;;;;;;;;;;15.31;63.84;97291.98;1646784;87;20137;-76
2021/06/17 00:50:18;;;;;;;;;;;;;;;15.26;64.42;97292.42;1656699;85;20248;-79
2021/06/17 00:52:44;;;;;;;;;;;;;;;15.21;63.70;97289.36;1656897;85;20125;-78
2021/06/17 00:55:12;;;;;;;;;;;;;;;15.14;62.75;97291.77;1656686;87;20129;-78
2021/06/17 00:57:39;;;;;;;;;;;;;;;15.10;63.47;97292.20;1655872;87;20130;-77
2021/06/17 01:00:08;;;;;;;;;;;;;;;15.07;63.25;97293.84;1656302;86;20442;-79
2021/06/17 01:02:34;;;;;;;;;;;;;;;15.05;64.14;97290.50;1665682;85;20440;-76
2021/06/17 01:05:00;;;;;;;;;;;;;;;15.02;63.40;97293.43;1658203;85;20171;-76
2021/06/17 01:07:36;;;;;;;;;;;;;;;14.99;64.45;97288.75;1683738;85;20139;-78
2021/06/17 01:10:09;;;;;;;;;;;;;;;14.97;63.83;97286.77;1683939;85;20138;-77
2021/06/17 01:12:48;;;;;;;;;;;;;;;14.98;66.88;97291.09;1670096;85;20132;-76
2021/06/17 01:15:18;;;;;;;;;;;;;;;15.01;64.18;97292.61;1640336;85;20123;-77
2021/06/17 01:17:48;;;;;;;;;;;;;;;15.05;63.63;97291.83;1656849;85;20437;-75
2021/06/17 01:20:36;;;;;;;;;;;;;;;15.08;63.38;97291.54;1635032;86;20153;-78
2021/06/17 01:23:21;;;;;;;;;;;;;;;15.11;63.94;97288.09;1625842;88;20120;-78
2021/06/17 01:25:53;;;;;;;;;;;;;;;15.15;62.28;97289.45;1631097;87;20113;-77
2021/06/17 01:28:20;;;;;;;;;;;;;;;15.22;62.68;97298.18;1656284;86;20126;-76
2021/06/17 01:30:55;;;;;;;;;;;;;;;15.29;63.66;97300.08;1656297;86;20118;-77
2021/06/17 01:33:25;;;;;;;;;;;;;;;15.35;64.79;97299.16;1658324;85;20154;-77
2021/06/17 01:35:51;;;;;;;;;;;;;;;15.40;64.04;97292.89;1656238;85;20137;-77
2021/06/17 01:38:20;;;;;;;;;;;;;;;15.45;64.59;97282.67;1656392;85;20113;-76
2021/06/17 01:40:48;;;;;;;;;;;;;;;15.48;63.02;97278.37;1656496;87;20137;-77
2021/06/17 01:43:17;;;;;;;;;;;;;;;15.50;63.37;97270.27;1656693;87;20137;-76
2021/06/17 01:45:45;;;;;;;;;;;;;;;15.52;63.73;97271.78;1636905;87;20142;-78
2021/06/17 01:48:11;;;;;;;;;;;;;;;15.54;62.60;97276.46;1656400;86;20134;-77
2021/06/17 01:50:38;;;;;;;;;;;;;;;15.54;63.08;97274.28;1641573;87;20140;-75
2021/06/17 01:53:04;;;;;;;;;;;;;;;15.54;62.15;97272.95;1629941;87;20160;-76
2021/06/17 01:55:32;;;;;;;;;;;;;;;15.55;61.37;97277.28;1629848;88;20132;-77
2021/06/17 01:58:05;;;;;;;;;;;;;;;15.56;63.69;97277.12;1629808;88;20128;-77
2021/06/17 02:00:32;;;;;;;;;;;;;;;15.57;62.21;97272.66;1643552;87;20127;-76
2021/06/17 02:03:00;;;;;;;;;;;;;;;15.54;63.34;97268.49;1656269;87;20427;-76
2021/06/17 02:05:27;;;;;;;;;;;;;;;15.54;61.65;97263.18;1656695;87;20130;-77
2021/06/17 02:07:53;;;;;;;;;;;;;;;15.52;65.26;97266.47;1630843;86;20169;-78
2021/06/17 02:10:20;;;;;;;;;;;;;;;15.50;63.73;97271.09;1629909;87;20187;-76
2021/06/17 02:12:47;;;;;;;;;;;;;;;15.48;63.79;97269.58;1629851;88;20169;-77
2021/06/17 02:15:14;;;;;;;;;;;;;;;15.46;62.85;97268.38;1629843;88;20149;-77
2021/06/17 02:17:42;;;;;;;;;;;;;;;15.42;62.94;97267.84;1652221;87;20169;-76
2021/06/17 02:20:09;;;;;;;;;;;;;;;15.38;64.32;97270.95;1656258;87;20142;-76
2021/06/17 02:22:37;;;;;;;;;;;;;;;15.35;62.49;97273.92;1638549;86;20130;-77
2021/06/17 02:25:04;;;;;;;;;;;;;;;15.29;63.67;97271.38;1665623;86;20137;-77
2021/06/17 02:27:32;;;;;;;;;;;;;;;15.23;62.57;97275.92;1666917;86;20138;-77
2021/06/17 02:30:05;;;;;;;;;;;;;;;15.18;62.35;97277.70;1666768;86;20134;-77
2021/06/17 02:32:32;;;;;;;;;;;;;;;15.13;62.78;97275.99;1666162;85;20138;-77
2021/06/17 02:34:59;;;;;;;;;;;;;;;15.07;63.35;97278.73;1667109;86;20129;-76
2021/06/17 02:37:25;;;;;;;;;;;;;;;15.04;62.44;97280.35;1666605;85;20160;-79
2021/06/17 02:39:52;;;;;;;;;;;;;;;15.01;65.47;97276.69;1666985;86;20160;-81
2021/06/17 02:42:21;;;;;;;;;;;;;;;14.97;64.57;97273.49;1666992;86;20122;-78
2021/06/17 02:44:49;;;;;;;;;;;;;;;14.94;66.74;97280.91;1642864;86;20164;-76
2021/06/17 02:47:16;;;;;;;;;;;;;;;14.91;65.68;97287.33;1639951;88;20469;-77
2021/06/17 02:49:42;;;;;;;;;;;;;;;14.88;65.35;97290.77;1640308;87;20156;-78
2021/06/17 02:52:10;;;;;;;;;;;;;;;14.85;65.47;97291.90;1640265;88;20144;-78
2021/06/17 02:54:36;;;;;;;;;;;;;;;14.82;64.69;97294.36;1660476;86;20137;-79
2021/06/17 02:57:09;;;;;;;;;;;;;;;14.79;64.71;97289.84;1667184;86;20466;-84
2021/06/17 02:59:58;;;;;;;;;;;;;;;14.77;65.29;97287.81;1665309;86;20894;-83
2021/06/17 03:02:34;;;;;;;;;;;;;;;14.77;64.04;97289.14;1666923;85;20149;-87
2021/06/17 03:04:59;;;;;;;;;;;;;;;14.77;65.19;97285.98;1667035;86;20410;-81
2021/06/17 03:07:28;;;;;;;;;;;;;;;14.77;65.28;97282.50;1666826;86;20137;-79
2021/06/17 03:10:06;;;;;;;;;;;;;;;14.77;65.97;97277.20;1661768;86;20170;-79
2021/06/17 03:12:33;;;;;;;;;;;;;;;14.77;65.90;97283.83;1640100;87;20139;-83
2021/06/17 03:15:03;;;;;;;;;;;;;;;14.77;63.30;97275.88;1640223;88;20140;-78
2021/06/17 03:17:30;;;;;;;;;;;;;;;14.77;64.67;97279.34;1640413;88;20150;-76
2021/06/17 03:19:57;;;;;;;;;;;;;;;14.77;64.41;97278.02;1645483;86;20133;-77
2021/06/17 03:22:25;;;;;;;;;;;;;;;14.79;66.99;97282.70;1666883;86;20445;-79
2021/06/17 03:24:55;;;;;;;;;;;;;;;14.82;66.41;97288.20;1653596;86;20130;-78
2021/06/17 03:27:22;;;;;;;;;;;;;;;14.86;66.46;97286.94;1652677;86;20145;-77
2021/06/17 03:29:50;;;;;;;;;;;;;;;14.88;67.15;97291.62;1653977;85;20198;-76
2021/06/17 03:32:17;;;;;;;;;;;;;;;14.92;62.81;97292.98;1627964;86;20243;-75
2021/06/17 03:34:46;;;;;;;;;;;;;;;14.92;66.20;97294.31;1626072;88;20176;-79
2021/06/17 03:37:14;;;;;;;;;;;;;;;14.95;65.19;97291.84;1626066;88;20137;-78
2021/06/17 03:39:42;;;;;;;;;;;;;;;15.01;65.80;97296.59;1629859;87;20454;-79
2021/06/17 03:42:10;;;;;;;;;;;;;;;15.07;66.75;97293.84;1652772;86;20134;-78
2021/06/17 03:44:37;;;;;;;;;;;;;;;15.13;66.03;97294.07;1633600;87;20178;-77
2021/06/17 03:47:04;;;;;;;;;;;;;;;15.20;64.41;97298.81;1630353;86;20173;-82
2021/06/17 03:49:31;;;;;;;;;;;;;;;15.26;65.73;97303.52;1628912;85;20140;-81
2021/06/17 03:51:58;;;;;;;;;;;;;;;15.33;65.12;97312.56;1652520;86;20163;-77
2021/06/17 03:54:27;;;;;;;;;;;;;;;15.39;65.04;97309.81;1633260;87;20211;-77
2021/06/17 03:56:56;;;;;;;;;;;;;;;15.46;65.23;97310.87;1652437;86;20137;-77
2021/06/17 03:59:25;;;;;;;;;;;;;;;15.54;65.45;97314.12;1652408;85;20146;-76
2021/06/17 04:01:52;;;;;;;;;;;;;;;15.61;64.57;97326.67;1626019;88;20141;-76
2021/06/17 04:04:19;;;;;;;;;;;;;;;15.67;65.33;97332.36;1639659;85;20128;-79
2021/06/17 04:06:49;;;;;;;;;;;;;;;15.83;64.48;97337.84;1673497;85;20479;-83
2021/06/17 04:09:24;;;;;;;;;;;;;;;16.00;64.33;97346.03;1652517;86;20170;-81
2021/06/17 04:11:49;;;;;;;;;;;;;;;16.10;63.93;97344.11;1654278;85;20184;-78
2021/06/17 04:14:17;;;;;;;;;;;;;;;16.23;63.94;97341.91;1656736;85;20425;-80
2021/06/17 04:16:45;;;;;;;;;;;;;;;16.43;63.91;97337.75;1668366;85;20485;-82
2021/06/17 04:19:11;;;;;;;;;;;;;;;16.62;63.44;97337.22;1649129;85;20142;-78
2021/06/17 04:21:39;;;;;;;;;;;;;;;16.81;63.25;97325.52;1632814;85;20127;-77
2021/06/17 04:24:08;;;;;;;;;;;;;;;17.20;62.13;97330.94;1664553;84;20115;-76
2021/06/17 04:26:35;;;;;;;;;;;;;;;17.47;61.70;97328.53;1654331;87;20165;-76
2021/06/17 04:29:01;;;;;;;;;;;;;;;17.72;61.36;97329.45;1656610;86;20403;-75
2021/06/17 04:31:28;;;;;;;;;;;;;;;17.95;60.89;97332.84;1656410;86;20451;-78
2021/06/17 04:33:54;;;;;;;;;;;;;;;18.19;59.98;97340.04;1656429;86;20451;-77
2021/06/17 04:36:20;;;;;;;;;;;;;;;18.46;59.44;97344.74;1657879;85;20133;-77
2021/06/17 04:38:47;;;;;;;;;;;;;;;18.94;59.25;97340.86;1656725;87;20142;-81
2021/06/17 04:41:14;;;;;;;;;;;;;;;19.58;57.72;97336.47;1656556;87;20130;-76
2021/06/17 04:43:41;;;;;;;;;;;;;;;19.94;56.56;97341.31;1657371;85;20122;-77
2021/06/17 04:46:07;;;;;;;;;;;;;;;20.15;55.88;97352.70;1643171;85;20184;-79
2021/06/17 04:48:34;;;;;;;;;;;;;;;20.29;55.13;97360.47;1610565;88;20174;-78
2021/06/17 04:51:02;;;;;;;;;;;;;;;20.44;55.88;97357.84;1629957;87;20455;-78
2021/06/17 04:53:30;;;;;;;;;;;;;;;20.57;54.60;97362.08;1635151;87;20455;-79
2021/06/17 04:55:57;;;;;;;;;;;;;;;20.65;54.19;97362.52;1656548;86;20439;-78
2021/06/17 04:58:24;;;;;;;;;;;;;;;20.66;54.19;97362.00;1656446;87;20411;-78
2021/06/17 05:00:51;;;;;;;;;;;;;;;20.64;53.47;97356.83;1656431;86;20438;-81
2021/06/17 05:03:17;;;;;;;;;;;;;;;20.66;53.62;97352.14;1654438;85;20450;-81
2021/06/17 05:05:45;;;;;;;;;;;;;;;20.68;53.84;97350.61;1657748;85;20435;-78
2021/06/17 05:10:48;;;;;;;;;;;;;;;20.63;53.51;97363.20;1645822;85;20126;-80
2021/06/17 05:13:31;;;;;;;;;;;;;;;20.57;53.30;97365.27;1654645;87;20166;-82
2021/06/17 05:15:59;;;;;;;;;;;;;;;20.54;53.40;97362.45;1656545;87;20442;-78
2021/06/17 05:18:27;;;;;;;;;;;;;;;20.53;53.31;97359.94;1656474;86;20414;-81
2021/06/17 05:20:55;;;;;;;;;;;;;;;20.46;53.45;97358.52;1656495;86;20459;-79
2021/06/17 05:23:23;;;;;;;;;;;;;;;20.48;53.91;97366.35;1658982;85;20742;-84
2021/06/17 05:25:54;;;;;;;;;;;;;;;20.44;53.35;97373.91;1651685;86;20152;-79
2021/06/17 05:28:22;;;;;;;;;;;;;;;20.38;53.31;97367.43;1656774;86;20138;-81
2021/06/17 05:30:51;;;;;;;;;;;;;;;20.36;53.49;97369.97;1667111;86;20137;-80
2021/06/17 05:33:17;;;;;;;;;;;;;;;20.34;53.35;97370.64;1687686;85;20190;-82
2021/06/17 05:35:46;;;;;;;;;;;;;;;20.29;53.32;97380.55;1694909;85;20179;-83
2021/06/17 05:38:17;;;;;;;;;;;;;;;20.31;53.24;97373.17;1694723;83;20175;-78
2021/06/17 05:40:43;;;;;;;;;;;;;;;20.34;53.41;97371.98;1690125;85;20157;-80
2021/06/17 05:43:10;;;;;;;;;;;;;;;20.38;52.97;97371.45;1667267;86;20137;-81
2021/06/17 05:45:36;;;;;;;;;;;;;;;20.48;53.09;97371.19;1665178;86;20145;-81
2021/06/17 05:48:03;;;;;;;;;;;;;;;20.59;52.86;97370.77;1668878;85;20143;-79
2021/06/17 05:50:29;;;;;;;;;;;;;;;20.73;53.00;97371.84;1685620;85;20123;-78
2021/06/17 05:52:55;;;;;;;;;;;;;;;20.89;53.20;97370.87;1667299;85;20157;-76
2021/06/17 05:55:21;;;;;;;;;;;;;;;21.08;52.49;97368.67;1663265;86;20134;-77
2021/06/17 05:57:48;;;;;;;;;;;;;;;21.32;52.71;97373.43;1666755;85;20153;-80
2021/06/17 06:00:15;;;;;;;;;;;;;;;21.63;51.88;97371.09;1669498;85;20117;-76
2021/06/17 06:02:42;;;;;;;;;;;;;;;22.03;51.09;97370.72;1686729;85;20182;-78
2021/06/17 06:05:11;;;;;;;;;;;;;;;22.70;50.69;97377.59;1685966;85;20145;-78
2021/06/17 06:07:38;;;;;;;;;;;;;;;23.38;48.45;97377.06;1667018;86;20137;-81
2021/06/17 06:10:09;;;;;;;;;;;;;;;23.95;47.88;97378.28;1668713;85;20126;-77
2021/06/17 06:12:36;;;;;;;;;;;;;;;24.25;47.24;97363.64;1666926;86;20141;-78
2021/06/17 06:15:03;;;;;;;;;;;;;;;24.60;46.67;97376.44;1665170;85;20150;-78
2021/06/17 06:17:29;;;;;;;;;;;;;;;24.90;44.64;97376.56;1666403;86;20125;-75
2021/06/17 06:19:55;;;;;;;;;;;;;;;25.15;46.68;97380.80;1655668;85;20572;-78
2021/06/17 06:22:22;;;;;;;;;;;;;;;25.34;43.47;97382.32;1667542;85;20125;-76
2021/06/17 06:24:49;;;;;;;;;;;;;;;25.41;44.56;97387.20;1666615;85;20165;-75
2021/06/17 06:27:15;;;;;;;;;;;;;;;25.46;43.25;97382.02;1649798;85;20168;-78
2021/06/17 06:29:42;;;;;;;;;;;;;;;25.53;42.90;97381.47;1642667;86;20112;-77
2021/06/17 06:32:09;;;;;;;;;;;;;;;25.56;43.40;97389.16;1664256;86;20130;-77
2021/06/17 06:34:36;;;;;;;;;;;;;;;25.57;42.91;97388.63;1665490;86;20125;-77
2021/06/17 06:37:02;;;;;;;;;;;;;;;25.60;42.86;97387.36;1661702;86;20150;-78
2021/06/17 06:39:31;;;;;;;;;;;;;;;25.65;42.61;97390.27;1642310;86;20168;-77
2021/06/17 06:41:59;;;;;;;;;;;;;;;25.77;45.29;97392.59;1662848;85;20137;-78
2021/06/17 06:44:25;;;;;;;;;;;;;;;25.98;41.50;97384.73;1661388;86;20144;-76
2021/06/17 06:46:53;;;;;;;;;;;;;;;26.55;40.98;97390.73;1666431;86;20142;-78
2021/06/17 06:49:19;;;;;;;;;;;;;;;27.21;40.77;97383.15;1665638;85;20195;-79
2021/06/17 06:51:46;;;;;;;;;;;;;;;27.53;39.97;97383.06;1666303;85;20129;-78
2021/06/17 06:54:18;;;;;;;;;;;;;;;27.77;38.45;97389.16;1662546;86;20187;-76
2021/06/17 06:56:41;;;;;;;;;;;;;;;27.93;38.20;97392.59;1651818;85;20152;-77
2021/06/17 06:59:07;;;;;;;;;;;;;;;28.01;38.33;97392.27;1652939;85;20133;-80
2021/06/17 07:01:36;;;;;;;;;;;;;;;28.04;37.88;97388.27;1666083;85;20430;-83
2021/06/17 07:04:02;;;;;;;;;;;;;;;28.05;37.92;97386.70;1657740;85;20125;-80
2021/06/17 07:06:28;;;;;;;;;;;;;;;28.10;37.82;97383.34;1649815;85;20177;-78
2021/06/17 07:09:05;;;;;;;;;;;;;;;28.10;39.16;97383.85;1668046;85;20185;-77
2021/06/17 07:11:31;;;;;;;;;;;;;;;27.99;38.13;97379.47;1653381;86;20154;-78
2021/06/17 07:13:58;;;;;;;;;;;;;;;27.89;38.17;97385.45;1664785;85;20438;-78
2021/06/17 07:16:25;;;;;;;;;;;;;;;27.90;38.23;97382.20;1666908;86;20430;-77
2021/06/17 07:18:51;;;;;;;;;;;;;;;27.88;38.09;97382.44;1663749;86;20145;-79
2021/06/17 07:21:17;;;;;;;;;;;;;;;27.88;38.11;97391.92;1657574;86;20114;-78
2021/06/17 07:23:49;;;;;;;;;;;;;;;27.89;38.33;97388.67;1673586;85;20239;-77
2021/06/17 07:26:12;;;;;;;;;;;;;;;27.91;38.82;97381.15;1630023;85;20520;-78
2021/06/17 07:28:38;;;;;;;;;;;;;;;27.95;38.84;97381.00;1634240;87;20130;-80
2021/06/17 07:31:04;;;;;;;;;;;;;;;28.04;40.32;97388.27;1652330;87;20460;-79
2021/06/17 07:33:30;;;;;;;;;;;;;;;28.22;38.51;97394.22;1654689;85;20448;-78
2021/06/17 07:35:56;;;;;;;;;;;;;;;28.35;37.95;97398.08;1652444;86;20459;-79
2021/06/17 07:38:22;;;;;;;;;;;;;;;28.42;37.38;97394.47;1644470;85;20103;-79
2021/06/17 07:40:48;;;;;;;;;;;;;;;28.44;37.65;97395.88;1641633;85;20140;-78
2021/06/17 07:43:14;;;;;;;;;;;;;;;28.58;36.86;97390.27;1630663;87;20126;-77
2021/06/17 07:45:41;;;;;;;;;;;;;;;28.68;35.37;97399.48;1638870;85;20094;-79
2021/06/17 07:48:11;;;;;;;;;;;;;;;28.96;35.52;97397.17;1650545;87;20137;-79
2021/06/17 07:50:37;;;;;;;;;;;;;;;29.27;35.40;97406.89;1625869;88;20141;-78
2021/06/17 07:53:03;;;;;;;;;;;;;;;29.71;34.35;97397.53;1628389;85;20136;-79
2021/06/17 07:55:29;;;;;;;;;;;;;;;30.21;38.32;97403.71;1627635;87;20156;-78
2021/06/17 07:57:55;;;;;;;;;;;;;;;30.76;36.26;97403.35;1626027;88;20165;-79
2021/06/17 08:00:22;;;;;;;;;;;;;;;31.31;38.07;97403.98;1629213;85;20141;-78
2021/06/17 08:02:49;;;;;;;;;;;;;;;31.86;31.76;97408.82;1628683;86;20132;-77
2021/06/17 08:05:15;;;;;;;;;;;;;;;32.03;32.12;97406.84;1639829;87;20423;-77
2021/06/17 08:07:41;;;;;;;;;;;;;;;32.01;32.54;97402.18;1652564;86;20134;-79
2021/06/17 08:10:08;;;;;;;;;;;;;;;31.99;31.87;97405.69;1653534;85;20138;-79
2021/06/17 08:12:35;;;;;;;;;;;;;;;31.94;29.12;97404.28;1652452;86;20138;-79
2021/06/17 08:15:01;;;;;;;;;;;;;;;32.21;31.45;97404.30;1652912;85;20157;-79
2021/06/17 08:17:27;;;;;;;;;;;;;;;32.37;29.84;97395.78;1644872;85;20135;-79
2021/06/17 08:19:53;;;;;;;;;;;;;;;32.54;28.48;97394.84;1644844;85;20484;-78
2021/06/17 08:22:24;;;;;;;;;;;;;;;32.86;28.26;97392.15;1674408;85;20124;-80
2021/06/17 08:24:47;;;;;;;;;;;;;;;33.18;29.03;97393.20;1659318;85;20197;-80
2021/06/17 08:27:13;;;;;;;;;;;;;;;33.31;30.44;97388.66;1677077;85;20108;-78
2021/06/17 08:29:39;;;;;;;;;;;;;;;33.42;30.02;97386.02;1646637;86;20200;-78
2021/06/17 08:32:06;;;;;;;;;;;;;;;33.39;27.08;97383.80;1652326;86;20138;-77
2021/06/17 08:34:32;;;;;;;;;;;;;;;32.91;28.70;97381.01;1652392;86;20130;-78
2021/06/17 08:36:58;;;;;;;;;;;;;;;32.26;28.95;97385.03;1652158;86;20141;-78
2021/06/17 08:39:28;;;;;;;;;;;;;;;31.20;28.17;97388.56;1652503;86;20137;-77
2021/06/17 08:41:54;;;;;;;;;;;;;;;30.82;29.14;97390.95;1647569;86;20103;-79
2021/06/17 08:44:21;;;;;;;;;;;;;;;30.52;29.72;97400.23;1647268;87;20099;-78
2021/06/17 08:46:47;;;;;;;;;;;;;;;30.18;29.25;97397.42;1649241;87;20158;-78
2021/06/17 08:49:15;;;;;;;;;;;;;;;29.99;31.29;97399.48;1651528;85;20130;-78
2021/06/17 08:51:41;;;;;;;;;;;;;;;29.94;31.08;97395.32;1647321;87;20106;-79
2021/06/17 08:54:08;;;;;;;;;;;;;;;29.80;29.35;97397.45;1649610;85;20431;-80
2021/06/17 08:56:36;;;;;;;;;;;;;;;29.65;30.33;97390.36;1650259;87;20466;-76
2021/06/17 08:59:04;;;;;;;;;;;;;;;29.47;30.64;97392.13;1642345;85;20165;-76
2021/06/17 09:01:30;;;;;;;;;;;;;;;29.29;30.64;97401.22;1648687;85;20188;-80
2021/06/17 09:03:58;;;;;;;;;;;;;;;29.04;31.17;97397.38;1641564;86;20141;-80
2021/06/17 09:06:25;;;;;;;;;;;;;;;29.02;31.18;97402.20;1652402;86;20141;-80
2021/06/17 09:09:01;;;;;;;;;;;;;;;29.07;31.36;97399.63;1652436;86;20142;-77
2021/06/17 09:11:28;;;;;;;;;;;;;;;28.76;30.69;97403.78;1652319;87;20146;-80
2021/06/17 09:14:13;;;;;;;;;;;;;;;28.57;31.98;97415.19;1653768;85;20141;-78
2021/06/17 09:16:39;;;;;;;;;;;;;;;28.33;32.44;97408.34;1650340;87;20134;-78
2021/06/17 09:19:05;;;;;;;;;;;;;;;28.36;32.70;97413.83;1652483;87;20138;-80
2021/06/17 09:21:37;;;;;;;;;;;;;;;28.25;32.63;97405.12;1630732;85;20149;-77
2021/06/17 09:24:05;;;;;;;;;;;;;;;28.13;31.36;97411.85;1629438;86;20128;-81
2021/06/17 09:26:33;;;;;;;;;;;;;;;28.14;31.68;97410.27;1623662;87;20129;-79
2021/06/17 09:29:01;;;;;;;;;;;;;;;28.17;32.02;97409.81;1653560;85;20134;-79
2021/06/17 09:31:33;;;;;;;;;;;;;;;28.09;32.98;97404.71;1651860;87;20157;-79
2021/06/17 09:34:00;;;;;;;;;;;;;;;28.10;32.69;97407.72;1634195;85;20142;-77
2021/06/17 09:36:32;;;;;;;;;;;;;;;27.89;31.74;97413.04;1654605;87;20143;-77
2021/06/17 09:39:02;;;;;;;;;;;;;;;27.50;32.42;97408.41;1655401;85;20162;-79
2021/06/17 09:41:41;;;;;;;;;;;;;;;27.40;33.14;97401.60;1651410;86;20142;-79
2021/06/17 09:44:28;;;;;;;;;;;;;;;27.35;33.26;97410.09;1630019;87;20140;-79
2021/06/17 09:47:05;;;;;;;;;;;;;;;27.14;33.40;97401.87;1628210;88;20180;-80
2021/06/17 09:49:32;;;;;;;;;;;;;;;26.89;34.09;97404.04;1627753;88;20164;-79
2021/06/17 09:51:58;;;;;;;;;;;;;;;26.77;33.58;97402.04;1628209;88;20136;-78
2021/06/17 09:54:29;;;;;;;;;;;;;;;26.84;33.05;97398.48;1641414;85;20130;-80
2021/06/17 09:57:07;;;;;;;;;;;;;;;26.85;33.05;97382.56;1651066;85;20142;-80
2021/06/17 09:59:49;;;;;;;;;;;;;;;26.87;33.69;97384.50;1670430;85;20126;-77
2021/06/17 10:02:31;;;;;;;;;;;;;;;26.76;33.57;97386.02;1654991;86;20145;-78
2021/06/17 10:05:11;;;;;;;;;;;;;;;26.67;33.58;97386.83;1646115;87;20140;-80
2021/06/17 10:07:38;;;;;;;;;;;;;;;26.61;33.02;97393.09;1594739;87;20132;-78
2021/06/17 10:10:05;;;;;;;;;;;;;;;26.60;32.22;97391.44;1628388;88;20136;-79
2021/06/17 10:12:31;;;;;;;;;;;;;;;26.49;32.57;97386.22;1628450;87;20136;-80
2021/06/17 10:15:00;;;;;;;;;;;;;;;26.46;32.36;97386.14;1629078;87;20132;-77
2021/06/17 10:17:27;;;;;;;;;;;;;;;26.42;32.44;97396.25;1627330;88;20152;-79
2021/06/17 10:19:57;;;;;;;;;;;;;;;26.41;32.75;97380.55;1630424;87;20227;-79
2021/06/17 10:22:32;;;;;;;;;;;;;;;26.54;32.49;97372.05;1628329;88;20137;-76
2021/06/17 10:24:59;;;;;;;;;;;;;;;26.62;32.70;97381.24;1641345;85;20200;-78
2021/06/17 10:27:34;;;;;;;;;;;;;;;26.41;33.01;97385.14;1637092;87;20263;-77
2021/06/17 10:30:00;;;;;;;;;;;;;;;26.30;33.01;97375.33;1641827;87;20178;-79
2021/06/17 10:32:46;;;;;;;;;;;;;;;26.21;33.83;97373.92;1656698;86;20154;-81
2021/06/17 10:35:29;;;;;;;;;;;;;;;26.10;34.42;97367.86;1645709;85;20167;-82
2021/06/17 10:38:03;;;;;;;;;;;;;;;26.08;35.23;97375.34;1656678;86;20158;-81
2021/06/17 10:40:30;;;;;;;;;;;;;;;26.18;35.33;97364.39;1637727;87;20132;-80
2021/06/17 10:42:57;;;;;;;;;;;;;;;26.21;35.45;97377.98;1639038;85;20121;-78
2021/06/17 10:45:41;;;;;;;;;;;;;;;26.18;35.22;97368.95;1654759;87;20462;-82
2021/06/17 10:48:10;;;;;;;;;;;;;;;26.30;35.56;97361.82;1657706;85;20435;-80
2021/06/17 10:50:43;;;;;;;;;;;;;;;26.46;35.40;97365.88;1650737;86;20133;-80
2021/06/17 10:53:38;;;;;;;;;;;;;;;26.61;34.68;97360.16;1656828;86;20125;-81
2021/06/17 10:56:02;;;;;;;;;;;;;;;26.84;34.93;97365.49;1669390;85;20424;-81
2021/06/17 10:58:44;;;;;;;;;;;;;;;26.99;34.50;97355.69;1632553;87;20482;-81
2021/06/17 11:01:42;;;;;;;;;;;;;;;27.10;33.95;97356.83;1642696;85;20167;-80
2021/06/17 11:04:13;;;;;;;;;;;;;;;27.26;33.68;97350.86;1683747;85;20136;-81
2021/06/17 11:06:55;;;;;;;;;;;;;;;27.51;33.85;97357.28;1651368;85;20414;-81
2021/06/17 11:09:42;;;;;;;;;;;;;;;27.50;32.54;97357.80;1655844;87;20126;-81
2021/06/17 11:12:23;;;;;;;;;;;;;;;27.53;32.48;97356.51;1635524;85;20136;-80
2021/06/17 11:14:56;;;;;;;;;;;;;;;27.61;32.50;97358.91;1662551;85;20131;-79
2021/06/17 11:17:33;;;;;;;;;;;;;;;27.86;32.95;97359.35;1669496;85;20134;-80
2021/06/17 11:20:07;;;;;;;;;;;;;;;27.96;32.63;97378.59;1637498;87;20219;-79
2021/06/17 11:22:37;;;;;;;;;;;;;;;27.50;32.95;97370.52;1638084;87;20130;-80
2021/06/17 11:25:13;;;;;;;;;;;;;;;27.41;33.59;97387.02;1633576;86;20529;-80
2021/06/17 11:28:01;;;;;;;;;;;;;;;27.10;35.58;97389.28;1637376;86;20130;-79
2021/06/17 11:30:42;;;;;;;;;;;;;;;26.62;37.41;97412.33;1656753;85;20137;-80
2021/06/17 11:33:19;;;;;;;;;;;;;;;25.87;42.20;97397.55;1656048;86;20415;-80
2021/06/17 11:35:47;;;;;;;;;;;;;;;25.41;43.87;97399.34;1649228;86;20134;-81
2021/06/17 11:38:26;;;;;;;;;;;;;;;25.16;42.93;97399.99;1668021;84;20124;-80
2021/06/17 11:40:54;;;;;;;;;;;;;;;25.07;43.40;97401.25;1675873;85;20139;-80
2021/06/17 11:43:23;;;;;;;;;;;;;;;24.99;45.45;97396.89;1653768;85;20165;-78
2021/06/17 11:45:49;;;;;;;;;;;;;;;25.03;43.08;97400.84;1640289;87;20186;-78
2021/06/17 11:48:16;;;;;;;;;;;;;;;25.08;42.31;97401.03;1645902;85;20142;-78
2021/06/17 11:50:44;;;;;;;;;;;;;;;25.07;41.79;97410.69;1629802;88;20172;-81
2021/06/17 11:53:16;;;;;;;;;;;;;;;25.08;41.59;97406.42;1635710;85;20177;-80
2021/06/17 11:55:52;;;;;;;;;;;;;;;25.07;41.61;97399.90;1660234;85;20123;-81
2021/06/17 11:58:18;;;;;;;;;;;;;;;25.23;41.09;97398.64;1653013;86;20118;-80
2021/06/17 12:00:44;;;;;;;;;;;;;;;25.43;40.59;97395.11;1656004;85;20143;-79
2021/06/17 12:03:19;;;;;;;;;;;;;;;25.64;40.96;97396.70;1653831;85;20106;-78
2021/06/17 12:05:44;;;;;;;;;;;;;;;25.90;40.74;97386.84;1656592;86;20422;-78
2021/06/17 12:08:12;;;;;;;;;;;;;;;26.11;40.59;97387.92;1656576;85;20110;-76
2021/06/17 12:10:41;;;;;;;;;;;;;;;26.37;39.33;97385.25;1652080;85;20173;-76
2021/06/17 12:13:08;;;;;;;;;;;;;;;26.47;38.85;97389.16;1640291;87;20128;-79
2021/06/17 12:15:39;;;;;;;;;;;;;;;26.45;37.38;97385.02;1650333;85;20206;-78
2021/06/17 12:18:10;;;;;;;;;;;;;;;26.67;37.55;97386.83;1648555;86;20129;-77
2021/06/17 12:20:39;;;;;;;;;;;;;;;26.71;37.07;97388.03;1640868;85;20132;-78
2021/06/17 12:23:09;;;;;;;;;;;;;;;26.77;37.19;97388.52;1684145;85;20131;-77
2021/06/17 12:25:42;;;;;;;;;;;;;;;26.66;37.58;97377.06;1671689;85;20468;-77
2021/06/17 12:28:10;;;;;;;;;;;;;;;26.40;37.27;97375.38;1648751;85;20139;-78
2021/06/17 12:30:46;;;;;;;;;;;;;;;26.22;38.03;97382.34;1658911;85;20134;-79
2021/06/17 12:33:26;;;;;;;;;;;;;;;26.10;39.00;97391.66;1658692;85;20121;-78
2021/06/17 12:35:56;;;;;;;;;;;;;;;25.60;41.01;97394.11;1642091;87;20429;-78
2021/06/17 12:38:29;;;;;;;;;;;;;;;24.97;42.88;97386.00;1654512;85;20426;-78
2021/06/17 12:41:12;;;;;;;;;;;;;;;24.76;42.71;97387.37;1658771;86;20181;-79
2021/06/17 12:43:50;;;;;;;;;;;;;;;24.53;43.51;97386.89;1650320;85;20446;-79
2021/06/17 12:46:28;;;;;;;;;;;;;;;24.27;43.63;97389.33;1656363;85;20122;-77
2021/06/17 12:54:34;;;;;;;;;;;;;;;24.33;43.67;97372.37;1654855;87;20434;-78
2021/06/17 12:57:17;;;;;;;;;;;;;;;24.38;44.21;97369.06;1659428;87;20157;-77
2021/06/17 12:59:54;;;;;;;;;;;;;;;24.52;43.18;97371.26;1643105;85;20139;-79
2021/06/17 13:02:30;;;;;;;;;;;;;;;24.71;44.97;97371.51;1642536;87;20141;-77
2021/06/17 13:05:01;;;;;;;;;;;;;;;24.89;44.36;97367.66;1662462;85;20129;-79
2021/06/17 13:07:27;;;;;;;;;;;;;;;25.15;44.35;97375.41;1629294;87;20140;-78